sensor_id;sensor_type;location;lat;lon;timestamp;P1;durP1;ratioP1;P2;durP2;ratioP2
47772;SDS011;33534;51.028;13.716;2023-02-28T00:00:01;9.38;;;4.75;;
47772;SDS011;33534;51.028;13.716;2023-02-28T00:02:33;10.70;;;5.63;;
47772;SDS011;33534;51.028;13.716;2023-02-28T00:04:59;9.30;;;5.15;;
47772;SDS011;33534;51.028;13.716;2023-02-28T00:07:28;10.85;;;5.63;;
47772;SDS011;33534;51.028;13.716;2023-02-28T00:09:54;9.88;;;4.88;;
47772;SDS011;33534;51.028;13.716;2023-02-28T00:12:20;8.85;;;4.65;;
47772;SDS011;33534;51.028;13.716;2023-02-28T00:14:46;10.80;;;4.93;;
47772;SDS011;33534;51.028;13.716;2023-02-28T00:17:12;10.10;;;5.80;;
47772;SDS011;33534;51.028;13.716;2023-02-28T00:19:38;9.18;;;5.25;;
47772;SDS011;33534;51.028;13.716;2023-02-28T00:22:05;8.30;;;4.90;;
47772;SDS011;33534;51.028;13.716;2023-02-28T00:24:32;6.65;;;4.88;;
47772;SDS011;33534;51.028;13.716;2023-02-28T00:26:58;8.68;;;5.00;;
47772;SDS011;33534;51.028;13.716;2023-02-28T00:29:24;8.48;;;5.10;;
47772;SDS011;33534;51.028;13.716;2023-02-28T00:31:50;8.20;;;5.15;;
47772;SDS011;33534;51.028;13.716;2023-02-28T00:34:16;12.93;;;6.00;;
47772;SDS011;33534;51.028;13.716;2023-02-28T00:36:42;8.52;;;4.97;;
47772;SDS011;33534;51.028;13.716;2023-02-28T00:39:10;11.85;;;5.70;;
47772;SDS011;33534;51.028;13.716;2023-02-28T00:41:36;10.60;;;5.25;;
47772;SDS011;33534;51.028;13.716;2023-02-28T00:44:02;10.02;;;6.05;;
47772;SDS011;33534;51.028;13.716;2023-02-28T00:46:28;9.65;;;5.85;;
47772;SDS011;33534;51.028;13.716;2023-02-28T00:48:54;8.77;;;5.03;;
47772;SDS011;33534;51.028;13.716;2023-02-28T00:51:20;9.82;;;5.45;;
47772;SDS011;33534;51.028;13.716;2023-02-28T00:53:46;9.07;;;5.38;;
47772;SDS011;33534;51.028;13.716;2023-02-28T00:56:12;8.85;;;5.53;;
47772;SDS011;33534;51.028;13.716;2023-02-28T00:58:38;9.10;;;5.35;;
47772;SDS011;33534;51.028;13.716;2023-02-28T01:01:05;8.35;;;5.50;;
47772;SDS011;33534;51.028;13.716;2023-02-28T01:03:31;11.27;;;5.85;;
47772;SDS011;33534;51.028;13.716;2023-02-28T01:05:57;10.85;;;5.72;;
47772;SDS011;33534;51.028;13.716;2023-02-28T01:08:23;12.20;;;5.10;;
47772;SDS011;33534;51.028;13.716;2023-02-28T01:10:50;9.27;;;5.50;;
47772;SDS011;33534;51.028;13.716;2023-02-28T01:13:17;9.95;;;5.57;;
47772;SDS011;33534;51.028;13.716;2023-02-28T01:15:45;9.63;;;4.82;;
47772;SDS011;33534;51.028;13.716;2023-02-28T01:18:11;9.95;;;5.40;;
47772;SDS011;33534;51.028;13.716;2023-02-28T01:20:37;10.07;;;5.50;;
47772;SDS011;33534;51.028;13.716;2023-02-28T01:23:03;10.05;;;5.70;;
47772;SDS011;33534;51.028;13.716;2023-02-28T01:25:29;8.45;;;5.32;;
47772;SDS011;33534;51.028;13.716;2023-02-28T01:27:55;8.85;;;5.40;;
47772;SDS011;33534;51.028;13.716;2023-02-28T01:30:21;8.63;;;5.60;;
47772;SDS011;33534;51.028;13.716;2023-02-28T01:32:47;9.13;;;5.95;;
47772;SDS011;33534;51.028;13.716;2023-02-28T01:35:15;8.68;;;5.15;;
47772;SDS011;33534;51.028;13.716;2023-02-28T01:37:41;10.55;;;5.82;;
47772;SDS011;33534;51.028;13.716;2023-02-28T01:40:07;8.23;;;5.40;;
47772;SDS011;33534;51.028;13.716;2023-02-28T01:42:33;10.00;;;5.70;;
47772;SDS011;33534;51.028;13.716;2023-02-28T01:47:28;10.52;;;5.90;;
47772;SDS011;33534;51.028;13.716;2023-02-28T01:49:54;9.40;;;6.00;;
47772;SDS011;33534;51.028;13.716;2023-02-28T01:52:21;9.93;;;6.35;;
47772;SDS011;33534;51.028;13.716;2023-02-28T01:54:51;13.57;;;6.82;;
47772;SDS011;33534;51.028;13.716;2023-02-28T01:57:18;7.45;;;4.18;;
47772;SDS011;33534;51.028;13.716;2023-02-28T02:02:19;14.98;;;6.07;;
47772;SDS011;33534;51.028;13.716;2023-02-28T02:04:50;11.77;;;6.53;;
47772;SDS011;33534;51.028;13.716;2023-02-28T02:09:43;9.88;;;5.53;;
47772;SDS011;33534;51.028;13.716;2023-02-28T02:12:19;9.93;;;6.20;;
47772;SDS011;33534;51.028;13.716;2023-02-28T02:15:00;14.40;;;6.38;;
47772;SDS011;33534;51.028;13.716;2023-02-28T02:17:42;10.65;;;5.13;;
47772;SDS011;33534;51.028;13.716;2023-02-28T02:23:08;13.40;;;6.35;;
47772;SDS011;33534;51.028;13.716;2023-02-28T02:46:04;9.98;;;6.13;;
47772;SDS011;33534;51.028;13.716;2023-02-28T02:48:32;11.35;;;5.78;;
47772;SDS011;33534;51.028;13.716;2023-02-28T02:51:00;11.93;;;6.70;;
47772;SDS011;33534;51.028;13.716;2023-02-28T02:53:29;13.70;;;7.35;;
47772;SDS011;33534;51.028;13.716;2023-02-28T02:55:56;10.85;;;6.10;;
47772;SDS011;33534;51.028;13.716;2023-02-28T02:58:27;16.50;;;6.82;;
47772;SDS011;33534;51.028;13.716;2023-02-28T03:00:56;11.80;;;6.97;;
47772;SDS011;33534;51.028;13.716;2023-02-28T03:03:23;12.88;;;6.55;;
47772;SDS011;33534;51.028;13.716;2023-02-28T03:05:54;12.40;;;6.35;;
47772;SDS011;33534;51.028;13.716;2023-02-28T03:08:20;12.38;;;6.43;;
47772;SDS011;33534;51.028;13.716;2023-02-28T03:10:50;9.35;;;6.40;;
47772;SDS011;33534;51.028;13.716;2023-02-28T03:16:03;12.43;;;6.53;;
47772;SDS011;33534;51.028;13.716;2023-02-28T03:18:41;13.48;;;6.50;;
47772;SDS011;33534;51.028;13.716;2023-02-28T03:21:14;13.85;;;7.18;;
47772;SDS011;33534;51.028;13.716;2023-02-28T03:23:59;11.00;;;6.65;;
47772;SDS011;33534;51.028;13.716;2023-02-28T03:26:27;12.65;;;6.75;;
47772;SDS011;33534;51.028;13.716;2023-02-28T03:31:32;13.00;;;7.07;;
47772;SDS011;33534;51.028;13.716;2023-02-28T03:36:26;16.65;;;7.55;;
47772;SDS011;33534;51.028;13.716;2023-02-28T03:38:56;12.10;;;6.82;;
47772;SDS011;33534;51.028;13.716;2023-02-28T03:41:24;14.57;;;7.40;;
47772;SDS011;33534;51.028;13.716;2023-02-28T03:43:56;11.75;;;6.75;;
47772;SDS011;33534;51.028;13.716;2023-02-28T03:46:23;12.82;;;7.63;;
47772;SDS011;33534;51.028;13.716;2023-02-28T03:48:55;11.63;;;7.38;;
47772;SDS011;33534;51.028;13.716;2023-02-28T03:51:22;12.80;;;7.72;;
47772;SDS011;33534;51.028;13.716;2023-02-28T03:53:53;14.75;;;7.60;;
47772;SDS011;33534;51.028;13.716;2023-02-28T03:56:42;15.00;;;8.45;;
47772;SDS011;33534;51.028;13.716;2023-02-28T03:59:13;13.95;;;7.13;;
47772;SDS011;33534;51.028;13.716;2023-02-28T04:01:47;13.13;;;7.40;;
47772;SDS011;33534;51.028;13.716;2023-02-28T04:04:13;16.63;;;8.25;;
47772;SDS011;33534;51.028;13.716;2023-02-28T04:06:40;17.63;;;8.05;;
47772;SDS011;33534;51.028;13.716;2023-02-28T04:09:06;21.35;;;8.95;;
47772;SDS011;33534;51.028;13.716;2023-02-28T04:11:37;17.02;;;9.95;;
47772;SDS011;33534;51.028;13.716;2023-02-28T04:14:04;17.92;;;10.02;;
47772;SDS011;33534;51.028;13.716;2023-02-28T04:16:31;18.15;;;9.25;;
47772;SDS011;33534;51.028;13.716;2023-02-28T04:18:57;14.93;;;8.68;;
47772;SDS011;33534;51.028;13.716;2023-02-28T04:21:26;16.90;;;8.50;;
47772;SDS011;33534;51.028;13.716;2023-02-28T04:23:53;16.35;;;9.48;;
47772;SDS011;33534;51.028;13.716;2023-02-28T04:26:19;16.25;;;9.63;;
47772;SDS011;33534;51.028;13.716;2023-02-28T04:28:45;17.33;;;9.38;;
47772;SDS011;33534;51.028;13.716;2023-02-28T04:31:11;19.70;;;10.02;;
47772;SDS011;33534;51.028;13.716;2023-02-28T04:33:37;17.50;;;9.30;;
47772;SDS011;33534;51.028;13.716;2023-02-28T04:36:04;17.85;;;10.32;;
47772;SDS011;33534;51.028;13.716;2023-02-28T04:38:34;20.20;;;9.70;;
47772;SDS011;33534;51.028;13.716;2023-02-28T04:41:04;19.05;;;9.82;;
47772;SDS011;33534;51.028;13.716;2023-02-28T04:43:30;17.45;;;9.70;;
47772;SDS011;33534;51.028;13.716;2023-02-28T04:45:57;17.20;;;9.82;;
47772;SDS011;33534;51.028;13.716;2023-02-28T04:48:29;18.10;;;10.35;;
47772;SDS011;33534;51.028;13.716;2023-02-28T04:50:59;19.27;;;9.77;;
47772;SDS011;33534;51.028;13.716;2023-02-28T04:53:27;14.80;;;7.85;;
47772;SDS011;33534;51.028;13.716;2023-02-28T04:55:54;18.55;;;10.27;;
47772;SDS011;33534;51.028;13.716;2023-02-28T04:58:20;19.58;;;9.85;;
47772;SDS011;33534;51.028;13.716;2023-02-28T05:00:48;17.02;;;9.35;;
47772;SDS011;33534;51.028;13.716;2023-02-28T05:03:14;19.02;;;10.32;;
47772;SDS011;33534;51.028;13.716;2023-02-28T05:05:40;26.48;;;11.27;;
47772;SDS011;33534;51.028;13.716;2023-02-28T05:08:06;25.63;;;12.50;;
47772;SDS011;33534;51.028;13.716;2023-02-28T05:10:32;26.05;;;11.05;;
47772;SDS011;33534;51.028;13.716;2023-02-28T05:12:58;23.00;;;11.48;;
47772;SDS011;33534;51.028;13.716;2023-02-28T05:15:24;25.85;;;11.05;;
47772;SDS011;33534;51.028;13.716;2023-02-28T05:17:50;21.60;;;11.13;;
47772;SDS011;33534;51.028;13.716;2023-02-28T05:20:16;23.67;;;11.20;;
47772;SDS011;33534;51.028;13.716;2023-02-28T05:22:42;23.75;;;11.32;;
47772;SDS011;33534;51.028;13.716;2023-02-28T05:25:12;24.63;;;12.32;;
47772;SDS011;33534;51.028;13.716;2023-02-28T05:27:39;26.77;;;11.48;;
47772;SDS011;33534;51.028;13.716;2023-02-28T05:30:06;29.33;;;12.45;;
47772;SDS011;33534;51.028;13.716;2023-02-28T05:32:35;26.90;;;11.95;;
47772;SDS011;33534;51.028;13.716;2023-02-28T05:35:01;25.08;;;11.90;;
47772;SDS011;33534;51.028;13.716;2023-02-28T05:37:27;24.42;;;11.23;;
47772;SDS011;33534;51.028;13.716;2023-02-28T05:39:56;27.95;;;12.35;;
47772;SDS011;33534;51.028;13.716;2023-02-28T05:42:22;28.95;;;13.88;;
47772;SDS011;33534;51.028;13.716;2023-02-28T05:44:48;25.73;;;11.38;;
47772;SDS011;33534;51.028;13.716;2023-02-28T05:47:14;27.08;;;12.70;;
47772;SDS011;33534;51.028;13.716;2023-02-28T05:49:41;27.23;;;13.00;;
47772;SDS011;33534;51.028;13.716;2023-02-28T05:52:07;28.63;;;13.13;;
47772;SDS011;33534;51.028;13.716;2023-02-28T05:54:33;24.35;;;11.55;;
47772;SDS011;33534;51.028;13.716;2023-02-28T05:56:59;26.00;;;13.00;;
47772;SDS011;33534;51.028;13.716;2023-02-28T05:59:25;29.80;;;13.95;;
47772;SDS011;33534;51.028;13.716;2023-02-28T06:01:52;25.88;;;13.02;;
47772;SDS011;33534;51.028;13.716;2023-02-28T06:04:18;26.38;;;13.40;;
47772;SDS011;33534;51.028;13.716;2023-02-28T06:06:45;30.35;;;13.60;;
47772;SDS011;33534;51.028;13.716;2023-02-28T06:09:11;28.40;;;13.43;;
47772;SDS011;33534;51.028;13.716;2023-02-28T06:11:39;28.33;;;13.88;;
47772;SDS011;33534;51.028;13.716;2023-02-28T06:14:05;27.70;;;13.23;;
47772;SDS011;33534;51.028;13.716;2023-02-28T06:16:32;34.03;;;17.02;;
47772;SDS011;33534;51.028;13.716;2023-02-28T06:18:59;28.98;;;14.05;;
47772;SDS011;33534;51.028;13.716;2023-02-28T06:21:26;27.75;;;13.93;;
47772;SDS011;33534;51.028;13.716;2023-02-28T06:23:55;27.23;;;13.57;;
47772;SDS011;33534;51.028;13.716;2023-02-28T06:26:21;19.17;;;11.60;;
47772;SDS011;33534;51.028;13.716;2023-02-28T06:28:47;18.00;;;9.82;;
47772;SDS011;33534;51.028;13.716;2023-02-28T06:31:14;17.58;;;8.93;;
47772;SDS011;33534;51.028;13.716;2023-02-28T06:33:41;15.10;;;7.70;;
47772;SDS011;33534;51.028;13.716;2023-02-28T06:36:08;14.75;;;8.45;;
47772;SDS011;33534;51.028;13.716;2023-02-28T06:38:34;19.00;;;8.90;;
47772;SDS011;33534;51.028;13.716;2023-02-28T06:41:01;16.70;;;8.25;;
47772;SDS011;33534;51.028;13.716;2023-02-28T06:43:28;14.13;;;8.60;;
47772;SDS011;33534;51.028;13.716;2023-02-28T06:45:55;17.98;;;9.40;;
47772;SDS011;33534;51.028;13.716;2023-02-28T06:48:21;17.65;;;9.15;;
47772;SDS011;33534;51.028;13.716;2023-02-28T06:50:47;16.92;;;9.63;;
47772;SDS011;33534;51.028;13.716;2023-02-28T06:53:13;18.98;;;8.98;;
47772;SDS011;33534;51.028;13.716;2023-02-28T06:55:39;16.10;;;8.73;;
47772;SDS011;33534;51.028;13.716;2023-02-28T06:58:06;15.23;;;8.48;;
47772;SDS011;33534;51.028;13.716;2023-02-28T07:00:39;16.33;;;8.07;;
47772;SDS011;33534;51.028;13.716;2023-02-28T07:03:05;16.25;;;8.15;;
47772;SDS011;33534;51.028;13.716;2023-02-28T07:05:31;15.13;;;8.05;;
47772;SDS011;33534;51.028;13.716;2023-02-28T07:08:00;15.48;;;8.73;;
47772;SDS011;33534;51.028;13.716;2023-02-28T07:10:26;15.18;;;9.05;;
47772;SDS011;33534;51.028;13.716;2023-02-28T07:12:52;16.85;;;9.63;;
47772;SDS011;33534;51.028;13.716;2023-02-28T07:15:18;17.77;;;10.18;;
47772;SDS011;33534;51.028;13.716;2023-02-28T07:17:44;14.75;;;8.40;;
47772;SDS011;33534;51.028;13.716;2023-02-28T07:20:10;15.65;;;9.57;;
47772;SDS011;33534;51.028;13.716;2023-02-28T07:22:36;18.50;;;10.50;;
47772;SDS011;33534;51.028;13.716;2023-02-28T07:25:03;15.27;;;8.50;;
47772;SDS011;33534;51.028;13.716;2023-02-28T07:27:29;13.85;;;8.80;;
47772;SDS011;33534;51.028;13.716;2023-02-28T07:29:55;15.25;;;9.20;;
47772;SDS011;33534;51.028;13.716;2023-02-28T07:32:21;15.38;;;8.45;;
47772;SDS011;33534;51.028;13.716;2023-02-28T07:34:47;21.83;;;9.05;;
47772;SDS011;33534;51.028;13.716;2023-02-28T07:37:14;17.08;;;9.23;;
47772;SDS011;33534;51.028;13.716;2023-02-28T07:39:40;12.68;;;8.18;;
47772;SDS011;33534;51.028;13.716;2023-02-28T07:42:09;16.00;;;9.05;;
47772;SDS011;33534;51.028;13.716;2023-02-28T07:44:37;12.68;;;7.78;;
47772;SDS011;33534;51.028;13.716;2023-02-28T07:47:08;16.85;;;8.65;;
47772;SDS011;33534;51.028;13.716;2023-02-28T07:49:35;17.17;;;8.93;;
47772;SDS011;33534;51.028;13.716;2023-02-28T07:52:02;17.45;;;8.57;;
47772;SDS011;33534;51.028;13.716;2023-02-28T07:54:28;13.00;;;8.40;;
47772;SDS011;33534;51.028;13.716;2023-02-28T07:56:54;21.60;;;9.15;;
47772;SDS011;33534;51.028;13.716;2023-02-28T07:59:20;13.70;;;8.68;;
47772;SDS011;33534;51.028;13.716;2023-02-28T08:01:46;13.57;;;8.10;;
47772;SDS011;33534;51.028;13.716;2023-02-28T08:04:15;16.42;;;9.30;;
47772;SDS011;33534;51.028;13.716;2023-02-28T08:06:41;13.80;;;8.45;;
47772;SDS011;33534;51.028;13.716;2023-02-28T08:09:07;15.98;;;8.35;;
47772;SDS011;33534;51.028;13.716;2023-02-28T08:11:33;16.58;;;9.07;;
47772;SDS011;33534;51.028;13.716;2023-02-28T08:13:59;16.13;;;9.35;;
47772;SDS011;33534;51.028;13.716;2023-02-28T08:16:25;15.55;;;9.73;;
47772;SDS011;33534;51.028;13.716;2023-02-28T08:18:51;15.82;;;9.98;;
47772;SDS011;33534;51.028;13.716;2023-02-28T08:21:18;19.30;;;10.68;;
47772;SDS011;33534;51.028;13.716;2023-02-28T08:23:46;18.70;;;10.50;;
47772;SDS011;33534;51.028;13.716;2023-02-28T08:26:13;17.25;;;9.35;;
47772;SDS011;33534;51.028;13.716;2023-02-28T08:28:39;16.95;;;9.63;;
47772;SDS011;33534;51.028;13.716;2023-02-28T08:31:09;18.10;;;9.95;;
47772;SDS011;33534;51.028;13.716;2023-02-28T08:33:35;17.25;;;9.90;;
47772;SDS011;33534;51.028;13.716;2023-02-28T08:36:01;23.65;;;9.63;;
47772;SDS011;33534;51.028;13.716;2023-02-28T08:38:27;16.52;;;9.32;;
47772;SDS011;33534;51.028;13.716;2023-02-28T08:40:57;19.13;;;10.32;;
47772;SDS011;33534;51.028;13.716;2023-02-28T08:43:24;14.52;;;10.45;;
47772;SDS011;33534;51.028;13.716;2023-02-28T08:45:53;16.48;;;9.55;;
47772;SDS011;33534;51.028;13.716;2023-02-28T08:48:21;17.92;;;9.15;;
47772;SDS011;33534;51.028;13.716;2023-02-28T08:53:22;18.13;;;9.00;;
47772;SDS011;33534;51.028;13.716;2023-02-28T08:55:55;23.55;;;10.10;;
47772;SDS011;33534;51.028;13.716;2023-02-28T08:58:21;13.30;;;8.05;;
47772;SDS011;33534;51.028;13.716;2023-02-28T09:00:47;23.05;;;8.95;;
47772;SDS011;33534;51.028;13.716;2023-02-28T09:03:13;15.48;;;8.25;;
47772;SDS011;33534;51.028;13.716;2023-02-28T09:05:39;18.80;;;9.98;;
47772;SDS011;33534;51.028;13.716;2023-02-28T09:08:05;15.73;;;8.60;;
47772;SDS011;33534;51.028;13.716;2023-02-28T09:10:31;15.57;;;8.50;;
47772;SDS011;33534;51.028;13.716;2023-02-28T09:12:57;15.88;;;8.40;;
47772;SDS011;33534;51.028;13.716;2023-02-28T09:15:23;15.65;;;8.82;;
47772;SDS011;33534;51.028;13.716;2023-02-28T09:17:49;16.52;;;9.00;;
47772;SDS011;33534;51.028;13.716;2023-02-28T09:20:15;19.70;;;8.93;;
47772;SDS011;33534;51.028;13.716;2023-02-28T09:22:41;16.75;;;8.65;;
47772;SDS011;33534;51.028;13.716;2023-02-28T09:25:07;15.95;;;8.18;;
47772;SDS011;33534;51.028;13.716;2023-02-28T09:27:33;16.00;;;8.23;;
47772;SDS011;33534;51.028;13.716;2023-02-28T09:29:59;16.90;;;8.18;;
47772;SDS011;33534;51.028;13.716;2023-02-28T09:32:25;11.93;;;7.57;;
47772;SDS011;33534;51.028;13.716;2023-02-28T09:34:52;13.93;;;8.00;;
47772;SDS011;33534;51.028;13.716;2023-02-28T09:37:18;11.98;;;6.97;;
47772;SDS011;33534;51.028;13.716;2023-02-28T09:39:44;13.02;;;7.80;;
47772;SDS011;33534;51.028;13.716;2023-02-28T09:42:29;12.38;;;7.63;;
47772;SDS011;33534;51.028;13.716;2023-02-28T09:44:56;13.68;;;7.53;;
47772;SDS011;33534;51.028;13.716;2023-02-28T09:47:34;14.10;;;8.02;;
47772;SDS011;33534;51.028;13.716;2023-02-28T09:50:16;15.95;;;7.32;;
47772;SDS011;33534;51.028;13.716;2023-02-28T09:57:57;16.40;;;8.00;;
47772;SDS011;33534;51.028;13.716;2023-02-28T10:00:28;15.00;;;6.93;;
47772;SDS011;33534;51.028;13.716;2023-02-28T10:05:49;16.95;;;7.70;;
47772;SDS011;33534;51.028;13.716;2023-02-28T10:08:32;12.40;;;6.78;;
47772;SDS011;33534;51.028;13.716;2023-02-28T10:11:02;11.02;;;6.43;;
47772;SDS011;33534;51.028;13.716;2023-02-28T10:13:41;11.95;;;7.13;;
47772;SDS011;33534;51.028;13.716;2023-02-28T10:16:13;15.00;;;6.90;;
47772;SDS011;33534;51.028;13.716;2023-02-28T10:18:43;13.07;;;6.97;;
47772;SDS011;33534;51.028;13.716;2023-02-28T10:21:18;11.38;;;7.00;;
47772;SDS011;33534;51.028;13.716;2023-02-28T10:23:45;15.27;;;6.97;;
47772;SDS011;33534;51.028;13.716;2023-02-28T10:26:13;12.82;;;6.70;;
47772;SDS011;33534;51.028;13.716;2023-02-28T10:28:41;14.70;;;7.93;;
47772;SDS011;33534;51.028;13.716;2023-02-28T10:31:09;13.20;;;7.93;;
47772;SDS011;33534;51.028;13.716;2023-02-28T10:33:37;16.48;;;8.15;;
47772;SDS011;33534;51.028;13.716;2023-02-28T10:36:03;13.77;;;7.70;;
47772;SDS011;33534;51.028;13.716;2023-02-28T10:41:31;11.25;;;6.53;;
47772;SDS011;33534;51.028;13.716;2023-02-28T10:43:49;12.88;;;7.55;;
47772;SDS011;33534;51.028;13.716;2023-02-28T10:46:18;17.15;;;9.00;;
47772;SDS011;33534;51.028;13.716;2023-02-28T10:49:04;15.98;;;9.27;;
47772;SDS011;33534;51.028;13.716;2023-02-28T10:51:35;14.73;;;9.18;;
47772;SDS011;33534;51.028;13.716;2023-02-28T10:54:02;13.80;;;9.60;;
47772;SDS011;33534;51.028;13.716;2023-02-28T10:56:28;20.15;;;9.40;;
47772;SDS011;33534;51.028;13.716;2023-02-28T11:03:49;16.15;;;8.38;;
47772;SDS011;33534;51.028;13.716;2023-02-28T11:06:17;12.65;;;8.30;;
47772;SDS011;33534;51.028;13.716;2023-02-28T11:08:48;13.73;;;7.90;;
47772;SDS011;33534;51.028;13.716;2023-02-28T11:11:15;14.48;;;8.73;;
47772;SDS011;33534;51.028;13.716;2023-02-28T11:13:41;14.95;;;8.20;;
47772;SDS011;33534;51.028;13.716;2023-02-28T11:16:09;16.15;;;7.93;;
47772;SDS011;33534;51.028;13.716;2023-02-28T11:21:01;16.70;;;8.80;;
47772;SDS011;33534;51.028;13.716;2023-02-28T11:23:29;13.05;;;8.40;;
47772;SDS011;33534;51.028;13.716;2023-02-28T11:25:59;14.60;;;8.40;;
47772;SDS011;33534;51.028;13.716;2023-02-28T11:28:28;15.60;;;8.90;;
47772;SDS011;33534;51.028;13.716;2023-02-28T11:31:15;13.25;;;8.32;;
47772;SDS011;33534;51.028;13.716;2023-02-28T11:33:51;14.75;;;8.60;;
47772;SDS011;33534;51.028;13.716;2023-02-28T11:38:46;16.13;;;8.82;;
47772;SDS011;33534;51.028;13.716;2023-02-28T11:51:45;13.38;;;8.40;;
47772;SDS011;33534;51.028;13.716;2023-02-28T11:57:21;12.88;;;7.75;;
47772;SDS011;33534;51.028;13.716;2023-02-28T12:00:03;13.82;;;8.50;;
47772;SDS011;33534;51.028;13.716;2023-02-28T12:02:44;14.27;;;8.45;;
47772;SDS011;33534;51.028;13.716;2023-02-28T12:10:52;11.63;;;7.43;;
47772;SDS011;33534;51.028;13.716;2023-02-28T12:21:15;16.13;;;8.43;;
47772;SDS011;33534;51.028;13.716;2023-02-28T12:31:40;14.52;;;7.60;;
47772;SDS011;33534;51.028;13.716;2023-02-28T12:34:09;14.00;;;7.72;;
47772;SDS011;33534;51.028;13.716;2023-02-28T12:36:36;10.48;;;6.88;;
47772;SDS011;33534;51.028;13.716;2023-02-28T12:39:04;15.02;;;7.72;;
47772;SDS011;33534;51.028;13.716;2023-02-28T12:41:42;12.98;;;7.95;;
47772;SDS011;33534;51.028;13.716;2023-02-28T12:46:42;14.40;;;8.02;;
47772;SDS011;33534;51.028;13.716;2023-02-28T12:49:16;11.85;;;7.65;;
47772;SDS011;33534;51.028;13.716;2023-02-28T12:51:43;14.77;;;7.95;;
47772;SDS011;33534;51.028;13.716;2023-02-28T12:56:47;11.88;;;7.68;;
47772;SDS011;33534;51.028;13.716;2023-02-28T12:59:21;15.68;;;9.18;;
47772;SDS011;33534;51.028;13.716;2023-02-28T13:09:56;15.63;;;10.15;;
47772;SDS011;33534;51.028;13.716;2023-02-28T13:12:22;14.55;;;9.73;;
47772;SDS011;33534;51.028;13.716;2023-02-28T13:14:49;15.00;;;9.35;;
47772;SDS011;33534;51.028;13.716;2023-02-28T13:17:19;16.27;;;10.43;;
47772;SDS011;33534;51.028;13.716;2023-02-28T13:22:20;17.98;;;10.48;;
47772;SDS011;33534;51.028;13.716;2023-02-28T13:24:49;16.10;;;10.55;;
47772;SDS011;33534;51.028;13.716;2023-02-28T13:29:49;19.08;;;10.40;;
47772;SDS011;33534;51.028;13.716;2023-02-28T13:32:19;19.45;;;10.52;;
47772;SDS011;33534;51.028;13.716;2023-02-28T13:42:51;19.75;;;10.40;;
47772;SDS011;33534;51.028;13.716;2023-02-28T13:48:14;18.90;;;11.40;;
47772;SDS011;33534;51.028;13.716;2023-02-28T13:57:58;18.55;;;11.07;;
47772;SDS011;33534;51.028;13.716;2023-02-28T14:05:42;17.35;;;11.10;;
47772;SDS011;33534;51.028;13.716;2023-02-28T14:08:18;16.23;;;10.68;;
47772;SDS011;33534;51.028;13.716;2023-02-28T14:10:50;18.83;;;9.45;;
47772;SDS011;33534;51.028;13.716;2023-02-28T14:16:04;17.75;;;11.07;;
47772;SDS011;33534;51.028;13.716;2023-02-28T14:18:32;14.95;;;10.48;;
47772;SDS011;33534;51.028;13.716;2023-02-28T14:29:14;18.55;;;11.35;;
47772;SDS011;33534;51.028;13.716;2023-02-28T14:32:01;18.15;;;10.60;;
47772;SDS011;33534;51.028;13.716;2023-02-28T14:37:26;15.30;;;9.85;;
47772;SDS011;33534;51.028;13.716;2023-02-28T14:39:53;19.38;;;11.50;;
47772;SDS011;33534;51.028;13.716;2023-02-28T14:42:28;18.33;;;10.63;;
47772;SDS011;33534;51.028;13.716;2023-02-28T14:44:54;17.67;;;11.00;;
47772;SDS011;33534;51.028;13.716;2023-02-28T14:47:25;19.38;;;10.52;;
47772;SDS011;33534;51.028;13.716;2023-02-28T14:49:52;19.42;;;10.63;;
47772;SDS011;33534;51.028;13.716;2023-02-28T14:52:20;15.90;;;9.70;;
47772;SDS011;33534;51.028;13.716;2023-02-28T14:54:51;16.10;;;10.10;;
47772;SDS011;33534;51.028;13.716;2023-02-28T14:57:25;20.70;;;10.90;;
47772;SDS011;33534;51.028;13.716;2023-02-28T15:00:02;19.90;;;11.40;;
47772;SDS011;33534;51.028;13.716;2023-02-28T15:02:30;16.75;;;10.48;;
47772;SDS011;33534;51.028;13.716;2023-02-28T15:05:01;16.95;;;10.50;;
47772;SDS011;33534;51.028;13.716;2023-02-28T15:07:27;18.20;;;10.67;;
47772;SDS011;33534;51.028;13.716;2023-02-28T15:12:39;22.08;;;12.18;;
47772;SDS011;33534;51.028;13.716;2023-02-28T15:15:13;18.58;;;11.20;;
47772;SDS011;33534;51.028;13.716;2023-02-28T15:17:39;18.00;;;11.52;;
47772;SDS011;33534;51.028;13.716;2023-02-28T15:20:10;20.10;;;11.98;;
47772;SDS011;33534;51.028;13.716;2023-02-28T15:22:36;21.00;;;11.60;;
47772;SDS011;33534;51.028;13.716;2023-02-28T15:25:03;21.23;;;11.65;;
47772;SDS011;33534;51.028;13.716;2023-02-28T15:27:31;17.35;;;11.45;;
47772;SDS011;33534;51.028;13.716;2023-02-28T15:29:59;23.40;;;12.07;;
47772;SDS011;33534;51.028;13.716;2023-02-28T15:32:28;17.10;;;11.10;;
47772;SDS011;33534;51.028;13.716;2023-02-28T15:34:54;17.33;;;11.18;;
47772;SDS011;33534;51.028;13.716;2023-02-28T15:39:53;21.92;;;12.20;;
47772;SDS011;33534;51.028;13.716;2023-02-28T15:42:22;16.42;;;11.35;;
47772;SDS011;33534;51.028;13.716;2023-02-28T15:44:48;14.05;;;10.35;;
47772;SDS011;33534;51.028;13.716;2023-02-28T15:47:22;23.08;;;11.65;;
47772;SDS011;33534;51.028;13.716;2023-02-28T15:50:02;17.75;;;11.50;;
47772;SDS011;33534;51.028;13.716;2023-02-28T15:52:29;20.73;;;11.35;;
47772;SDS011;33534;51.028;13.716;2023-02-28T15:54:59;18.75;;;12.25;;
47772;SDS011;33534;51.028;13.716;2023-02-28T15:57:32;17.90;;;11.43;;
47772;SDS011;33534;51.028;13.716;2023-02-28T16:00:00;19.58;;;11.27;;
47772;SDS011;33534;51.028;13.716;2023-02-28T16:02:31;18.25;;;11.55;;
47772;SDS011;33534;51.028;13.716;2023-02-28T16:05:00;17.58;;;11.90;;
47772;SDS011;33534;51.028;13.716;2023-02-28T16:07:26;18.92;;;12.15;;
47772;SDS011;33534;51.028;13.716;2023-02-28T16:09:53;20.65;;;11.70;;
47772;SDS011;33534;51.028;13.716;2023-02-28T16:12:19;17.52;;;12.18;;
47772;SDS011;33534;51.028;13.716;2023-02-28T16:14:46;18.30;;;10.90;;
47772;SDS011;33534;51.028;13.716;2023-02-28T16:17:24;19.85;;;12.20;;
47772;SDS011;33534;51.028;13.716;2023-02-28T16:19:51;16.90;;;11.48;;
47772;SDS011;33534;51.028;13.716;2023-02-28T16:22:17;25.25;;;11.95;;
47772;SDS011;33534;51.028;13.716;2023-02-28T16:24:43;17.27;;;10.80;;
47772;SDS011;33534;51.028;13.716;2023-02-28T16:27:51;18.83;;;11.50;;
47772;SDS011;33534;51.028;13.716;2023-02-28T16:29:58;19.25;;;11.80;;
47772;SDS011;33534;51.028;13.716;2023-02-28T16:32:24;21.02;;;12.88;;
47772;SDS011;33534;51.028;13.716;2023-02-28T16:34:50;21.95;;;12.68;;
47772;SDS011;33534;51.028;13.716;2023-02-28T16:37:17;23.13;;;12.70;;
47772;SDS011;33534;51.028;13.716;2023-02-28T16:39:43;23.02;;;12.25;;
47772;SDS011;33534;51.028;13.716;2023-02-28T16:42:18;19.55;;;11.68;;
47772;SDS011;33534;51.028;13.716;2023-02-28T16:44:46;19.60;;;12.63;;
47772;SDS011;33534;51.028;13.716;2023-02-28T16:47:12;20.75;;;12.45;;
47772;SDS011;33534;51.028;13.716;2023-02-28T16:49:38;18.90;;;12.25;;
47772;SDS011;33534;51.028;13.716;2023-02-28T16:52:07;18.13;;;11.55;;
47772;SDS011;33534;51.028;13.716;2023-02-28T16:54:33;18.95;;;11.48;;
47772;SDS011;33534;51.028;13.716;2023-02-28T16:56:59;17.58;;;12.35;;
47772;SDS011;33534;51.028;13.716;2023-02-28T16:59:26;22.05;;;12.68;;
47772;SDS011;33534;51.028;13.716;2023-02-28T17:01:53;24.05;;;12.95;;